Time;durP1;ratioP1;P1;durP2;ratioP2;P2;SDS_P1;SDS_P2;PMS_P1;PMS_P2;Temp;Humidity;BMP_temperature;BMP_pressure;BME280_temperature;BME280_humidity;BME280_pressure;Samples;Min_cycle;Max_cycle;Signal;HPM_P1;HPM_P2
2022/03/29 00:01:24;;;;;;;12.77;9.37;;;;;;;8.45;65.29;97964.09;5058291;28;20251;-68
2022/03/29 00:03:51;;;;;;;12.53;9.13;;;;;;;8.42;66.10;97964.31;5059580;28;20219;-69
2022/03/29 00:06:17;;;;;;;14.57;9.67;;;;;;;8.41;65.76;97962.63;5057456;28;20715;-68
2022/03/29 00:08:45;;;;;;;13.53;9.70;;;;;;;8.47;65.40;97956.97;5057855;28;20231;-68
2022/03/29 00:11:13;;;;;;;11.50;8.90;;;;;;;8.50;65.25;97955.94;5058097;28;20579;-68
2022/03/29 00:13:39;;;;;;;13.60;9.47;;;;;;;8.51;65.17;97947.09;5059684;28;20242;-68
2022/03/29 00:16:06;;;;;;;12.57;9.30;;;;;;;8.49;65.39;97948.94;5057444;28;20215;-68
2022/03/29 00:18:32;;;;;;;12.37;9.17;;;;;;;8.46;65.22;97941.25;5057338;28;20216;-69
2022/03/29 00:20:59;;;;;;;17.33;10.20;;;;;;;8.46;65.19;97938.63;5057450;28;20203;-70
2022/03/29 00:23:25;;;;;;;15.90;10.10;;;;;;;8.43;65.71;97941.44;5059845;28;20284;-68
2022/03/29 00:25:53;;;;;;;13.43;9.53;;;;;;;8.43;65.61;97941.44;5055798;28;20216;-69
2022/03/29 00:28:20;;;;;;;16.33;9.43;;;;;;;8.36;65.64;97927.84;5057328;28;20213;-69
2022/03/29 00:30:46;;;;;;;14.47;9.67;;;;;;;8.33;66.06;97928.00;5057380;28;20223;-68
2022/03/29 00:33:13;;;;;;;14.03;9.83;;;;;;;8.30;66.43;97927.38;5060134;28;20246;-68
2022/03/29 00:35:39;;;;;;;13.57;9.43;;;;;;;8.29;65.60;97920.41;5056916;28;20220;-68
2022/03/29 00:38:06;;;;;;;15.80;10.00;;;;;;;8.24;66.58;97917.22;5057174;28;20211;-68
2022/03/29 00:40:32;;;;;;;13.57;10.17;;;;;;;8.13;68.28;97923.13;5057079;28;20216;-68
2022/03/29 00:43:00;;;;;;;13.80;9.90;;;;;;;8.16;68.38;97919.47;5060052;28;20219;-70
2022/03/29 00:45:27;;;;;;;13.63;9.63;;;;;;;8.15;68.81;97912.53;5056730;28;20215;-69
2022/03/29 00:47:53;;;;;;;16.23;9.67;;;;;;;8.12;68.49;97915.31;5057032;28;20591;-68
2022/03/29 00:50:20;;;;;;;14.70;9.73;;;;;;;8.11;67.56;97916.28;5056604;28;20219;-68
2022/03/29 00:52:47;;;;;;;16.40;9.80;;;;;;;8.09;67.12;97913.72;5057854;28;20778;-70
2022/03/29 00:55:16;;;;;;;15.00;9.50;;;;;;;8.08;67.57;97900.69;5056566;28;20235;-69
2022/03/29 00:57:45;;;;;;;16.03;9.87;;;;;;;8.01;68.00;97897.59;5056436;28;20213;-68
2022/03/29 01:00:15;;;;;;;15.53;10.33;;;;;;;7.94;68.44;97892.78;5056159;28;20254;-68
2022/03/29 01:02:42;;;;;;;12.93;9.47;;;;;;;7.90;69.81;97891.31;5058926;28;20250;-68
2022/03/29 01:05:09;;;;;;;14.60;9.80;;;;;;;7.92;70.89;97889.41;5056662;28;20216;-68
2022/03/29 01:07:35;;;;;;;18.57;10.13;;;;;;;7.87;71.47;97883.59;5056508;28;20212;-69
2022/03/29 01:10:02;;;;;;;13.27;9.93;;;;;;;7.90;71.40;97873.72;5056457;28;20223;-69
2022/03/29 01:12:31;;;;;;;15.90;10.20;;;;;;;7.98;72.24;97883.78;5058472;28;20673;-70
2022/03/29 01:14:59;;;;;;;16.30;10.03;;;;;;;7.99;71.66;97869.66;5056417;28;20227;-69
2022/03/29 01:17:39;;;;;;;15.67;11.17;;;;;;;8.04;70.74;97872.88;5055028;28;20212;-70
2022/03/29 01:20:09;;;;;;;13.70;10.07;;;;;;;8.09;70.11;97870.78;5057547;28;20582;-69
2022/03/29 01:22:40;;;;;;;16.17;11.10;;;;;;;8.09;70.09;97857.63;5054928;28;20243;-68
2022/03/29 01:25:08;;;;;;;14.30;10.00;;;;;;;8.02;70.15;97859.78;5046439;28;20212;-68
2022/03/29 01:27:36;;;;;;;12.80;9.53;;;;;;;8.03;69.62;97850.94;5056080;28;20208;-68
2022/03/29 01:30:03;;;;;;;17.40;10.83;;;;;;;8.08;68.91;97858.59;5057996;28;20254;-68
2022/03/29 01:32:31;;;;;;;15.50;10.63;;;;;;;8.10;68.67;97849.66;5056774;28;20212;-70
2022/03/29 01:34:58;;;;;;;14.97;10.57;;;;;;;8.13;68.25;97838.91;5055848;28;20670;-68
2022/03/29 01:37:24;;;;;;;16.60;9.83;;;;;;;8.14;68.80;97839.75;5055949;28;20216;-68
2022/03/29 01:39:52;;;;;;;13.63;10.30;;;;;;;8.08;69.48;97837.53;5057574;28;20219;-68
2022/03/29 01:42:19;;;;;;;13.67;9.77;;;;;;;8.03;70.14;97829.06;5056750;28;20558;-68
2022/03/29 01:44:45;;;;;;;13.13;9.90;;;;;;;7.99;70.60;97827.56;5054463;28;20219;-68
2022/03/29 01:47:12;;;;;;;12.83;9.40;;;;;;;7.94;70.62;97819.13;5055696;28;20223;-68
2022/03/29 01:49:39;;;;;;;14.43;9.73;;;;;;;7.91;70.84;97821.97;5057296;28;20602;-68
2022/03/29 01:52:06;;;;;;;16.27;10.10;;;;;;;7.86;70.77;97813.50;5057297;28;20220;-68
2022/03/29 01:54:32;;;;;;;15.90;10.60;;;;;;;7.83;71.20;97816.34;5055737;28;20247;-69
2022/03/29 01:57:00;;;;;;;13.87;10.43;;;;;;;7.77;71.73;97814.09;5055687;28;20212;-68
2022/03/29 02:00:30;;;;;;;15.07;10.47;;;;;;;7.80;71.01;97811.25;5056872;28;20238;-68
2022/03/29 02:02:13;;;;;;;17.50;10.33;;;;;;;7.78;71.48;97805.25;5054023;28;20245;-68
2022/03/29 02:04:39;;;;;;;13.70;9.67;;;;;;;7.73;72.01;97804.69;5056027;28;20212;-68
2022/03/29 02:07:06;;;;;;;13.13;9.07;;;;;;;7.71;72.27;97807.41;5055903;28;20644;-68
2022/03/29 02:09:32;;;;;;;13.30;9.13;;;;;;;7.67;72.89;97800.69;5058515;28;20215;-68
2022/03/29 02:12:01;;;;;;;13.90;9.33;;;;;;;7.66;72.71;97798.16;5057970;28;20211;-67
2022/03/29 02:14:27;;;;;;;12.57;9.33;;;;;;;7.63;72.25;97793.06;5059550;28;20716;-68
2022/03/29 02:16:54;;;;;;;14.67;9.90;;;;;;;7.61;72.47;97792.31;5059916;28;20215;-68
2022/03/29 02:19:20;;;;;;;12.97;9.60;;;;;;;7.56;72.99;97794.38;5062793;28;20241;-68
2022/03/29 02:21:46;;;;;;;14.10;9.70;;;;;;;7.57;72.60;97788.19;5056823;28;20708;-68
2022/03/29 02:24:13;;;;;;;15.70;9.77;;;;;;;7.54;72.66;97788.41;5059574;28;20235;-71
2022/03/29 02:26:39;;;;;;;13.33;9.63;;;;;;;7.54;71.99;97786.59;5059248;28;20219;-70
2022/03/29 02:29:07;;;;;;;14.43;9.87;;;;;;;7.50;72.39;97781.63;5061815;28;20208;-69
2022/03/29 02:31:34;;;;;;;12.90;9.13;;;;;;;7.49;72.50;97787.81;5059720;28;20215;-69
2022/03/29 02:34:00;;;;;;;13.33;9.60;;;;;;;7.40;71.62;97781.34;5059198;28;20235;-68
2022/03/29 02:36:27;;;;;;;14.97;9.73;;;;;;;7.38;71.00;97786.81;5057099;28;20695;-69
2022/03/29 02:38:53;;;;;;;15.00;9.67;;;;;;;7.38;71.33;97776.31;5061196;28;20212;-67
2022/03/29 02:41:19;;;;;;;11.87;9.13;;;;;;;7.36;71.91;97789.53;5059861;28;20220;-69
2022/03/29 02:43:46;;;;;;;13.83;10.10;;;;;;;7.33;71.31;97773.94;5059304;28;20220;-69
2022/03/29 02:46:14;;;;;;;16.27;10.10;;;;;;;7.34;71.62;97770.38;5059070;28;20215;-68
2022/03/29 02:48:41;;;;;;;17.73;10.30;;;;;;;7.27;72.71;97778.75;5060708;28;20220;-70
2022/03/29 02:51:07;;;;;;;15.00;10.10;;;;;;;7.24;74.00;97770.09;5060013;28;20234;-69
2022/03/29 02:53:34;;;;;;;14.03;10.37;;;;;;;7.29;74.34;97759.31;5048482;28;20266;-69
2022/03/29 02:56:00;;;;;;;17.23;11.03;;;;;;;7.32;74.31;97767.00;5058815;28;20235;-69
2022/03/29 02:58:26;;;;;;;13.97;9.60;;;;;;;7.32;74.79;97764.38;5060019;28;20212;-68
2022/03/29 03:00:53;;;;;;;14.60;10.00;;;;;;;7.33;75.17;97763.41;5060340;28;20214;-68
2022/03/29 03:03:21;;;;;;;16.77;10.03;;;;;;;7.34;74.20;97771.22;5057110;28;20626;-69
2022/03/29 03:05:47;;;;;;;14.47;10.03;;;;;;;7.39;74.94;97763.03;5058779;28;20238;-68
2022/03/29 03:08:14;;;;;;;15.83;10.83;;;;;;;7.41;74.28;97766.44;5059356;28;20235;-68
2022/03/29 03:10:40;;;;;;;13.93;10.07;;;;;;;7.39;74.39;97763.03;5060684;28;20272;-68
2022/03/29 03:13:07;;;;;;;12.23;10.07;;;;;;;7.38;74.71;97761.34;5056255;28;20216;-68
2022/03/29 03:15:33;;;;;;;16.17;10.13;;;;;;;7.33;74.65;97766.03;5058718;28;20208;-68
2022/03/29 03:18:00;;;;;;;14.70;10.27;;;;;;;7.28;74.14;97762.88;5058440;28;20224;-68
2022/03/29 03:20:29;;;;;;;17.17;11.03;;;;;;;7.17;74.98;97765.31;5059332;28;20221;-68
2022/03/29 03:22:56;;;;;;;16.00;11.00;;;;;;;7.13;75.74;97774.31;5058404;28;20577;-68
2022/03/29 03:25:23;;;;;;;15.20;10.50;;;;;;;7.10;75.57;97768.41;5058093;28;20219;-70
2022/03/29 03:27:49;;;;;;;15.53;10.50;;;;;;;7.06;75.84;97765.13;5058375;28;20293;-70
2022/03/29 03:30:17;;;;;;;16.33;11.13;;;;;;;7.11;75.09;97763.06;5059073;28;20668;-69
2022/03/29 03:32:44;;;;;;;14.30;10.57;;;;;;;7.06;75.87;97765.13;5058118;28;20219;-68
2022/03/29 03:35:11;;;;;;;17.43;11.27;;;;;;;7.04;76.04;97761.75;5057901;28;20250;-69
2022/03/29 03:37:39;;;;;;;15.67;10.50;;;;;;;7.02;76.20;97758.38;5057894;28;20699;-69
2022/03/29 03:40:08;;;;;;;13.93;10.80;;;;;;;6.99;75.85;97753.31;5055269;28;20783;-68
2022/03/29 03:42:37;;;;;;;13.63;10.53;;;;;;;7.04;75.21;97751.25;5058218;28;20242;-68
2022/03/29 03:45:04;;;;;;;15.00;10.90;;;;;;;7.02;74.44;97747.84;5057799;28;20302;-68
2022/03/29 03:47:31;;;;;;;14.83;10.37;;;;;;;6.98;75.22;97751.63;5057759;28;20231;-68
2022/03/29 03:49:58;;;;;;;15.37;11.10;;;;;;;7.00;75.10;97751.50;5060185;28;20214;-68
2022/03/29 03:52:25;;;;;;;16.33;10.97;;;;;;;6.96;75.64;97748.22;5057720;28;20215;-68
2022/03/29 03:54:54;;;;;;;14.70;11.50;;;;;;;6.92;76.70;97745.88;5056814;28;20266;-68
2022/03/29 03:57:21;;;;;;;14.77;10.53;;;;;;;6.86;77.59;97736.59;5057594;28;20226;-68
2022/03/29 03:59:48;;;;;;;17.20;10.80;;;;;;;6.85;77.94;97737.53;5060319;28;20224;-69
2022/03/29 04:02:14;;;;;;;16.80;11.23;;;;;;;6.90;78.52;97738.09;5057635;28;20715;-69
2022/03/29 04:04:41;;;;;;;16.70;11.23;;;;;;;6.91;78.62;97739.78;5057770;28;20212;-69
2022/03/29 04:07:07;;;;;;;17.60;11.10;;;;;;;6.97;77.82;97730.69;5057417;28;20234;-68
2022/03/29 04:09:35;;;;;;;15.83;10.63;;;;;;;7.00;77.02;97731.34;5060352;28;20211;-69
2022/03/29 04:12:03;;;;;;;16.93;11.50;;;;;;;7.02;77.14;97726.84;5057190;28;20726;-68
2022/03/29 04:14:30;;;;;;;17.23;11.10;;;;;;;6.98;76.74;97725.34;5057357;28;20243;-69
2022/03/29 04:16:56;;;;;;;17.73;11.30;;;;;;;6.92;77.46;97728.34;5057266;28;20217;-69
2022/03/29 04:19:23;;;;;;;15.13;10.87;;;;;;;6.88;77.25;97724.22;5060363;28;20282;-69
2022/03/29 04:21:49;;;;;;;17.17;10.93;;;;;;;6.86;78.37;97730.50;5055489;28;20692;-68
2022/03/29 04:24:16;;;;;;;16.70;10.97;;;;;;;6.78;78.82;97722.25;5057449;28;20220;-69
2022/03/29 04:26:43;;;;;;;20.83;11.23;;;;;;;6.75;78.71;97720.66;5057443;28;20223;-70
2022/03/29 04:29:11;;;;;;;15.87;11.00;;;;;;;6.70;79.37;97725.31;5059621;28;20706;-70
2022/03/29 04:31:37;;;;;;;16.13;10.87;;;;;;;6.64;79.21;97730.94;5057022;28;20256;-70
2022/03/29 04:34:05;;;;;;;14.87;10.43;;;;;;;6.64;79.57;97720.44;5055999;28;20248;-68
2022/03/29 04:36:32;;;;;;;15.27;11.00;;;;;;;6.61;79.52;97720.66;5057296;28;20217;-68
2022/03/29 04:38:58;;;;;;;14.57;10.47;;;;;;;6.61;79.64;97712.78;5059742;28;20699;-68
2022/03/29 04:41:25;;;;;;;16.50;10.90;;;;;;;6.61;79.81;97717.16;5054153;28;20212;-69
2022/03/29 04:43:52;;;;;;;15.50;11.50;;;;;;;6.62;79.44;97711.81;5057021;28;20307;-68
2022/03/29 04:46:19;;;;;;;15.97;11.03;;;;;;;6.65;79.39;97705.56;5056952;28;20224;-68
2022/03/29 04:48:46;;;;;;;15.27;10.07;;;;;;;6.64;79.33;97704.69;5057621;28;20271;-68
2022/03/29 04:51:12;;;;;;;13.30;9.53;;;;;;;6.63;79.25;97708.25;5056838;28;20215;-68
2022/03/29 04:53:39;;;;;;;15.00;10.17;;;;;;;6.68;79.10;97708.84;5056891;28;20598;-68
2022/03/29 04:56:06;;;;;;;16.00;10.20;;;;;;;6.68;79.74;97694.84;5056672;28;20219;-68
2022/03/29 04:58:32;;;;;;;13.17;9.70;;;;;;;6.66;79.58;97705.44;5058674;28;20218;-68
2022/03/29 05:00:59;;;;;;;15.80;11.03;;;;;;;6.65;80.18;97695.88;5057174;28;20226;-68
2022/03/29 05:03:27;;;;;;;15.30;10.10;;;;;;;6.66;80.58;97702.81;5056600;28;20246;-68
2022/03/29 05:05:54;;;;;;;14.93;10.23;;;;;;;6.64;80.49;97703.84;5056530;28;20453;-68
2022/03/29 05:08:21;;;;;;;17.27;11.20;;;;;;;6.64;80.67;97703.84;5058013;28;20219;-68
2022/03/29 05:10:48;;;;;;;15.50;10.83;;;;;;;6.72;80.59;97698.97;5057154;28;20257;-69
2022/03/29 05:13:16;;;;;;;15.47;10.17;;;;;;;6.68;80.70;97698.31;5056038;28;20215;-68
2022/03/29 05:15:42;;;;;;;15.00;9.67;;;;;;;6.65;80.41;97698.50;5054672;28;20238;-68
2022/03/29 05:18:08;;;;;;;14.20;9.83;;;;;;;6.63;80.29;97695.13;5057664;28;20212;-68
2022/03/29 05:20:37;;;;;;;15.90;9.63;;;;;;;6.66;80.53;97700.19;5056276;28;20215;-68
2022/03/29 05:23:06;;;;;;;14.70;9.63;;;;;;;6.67;80.39;97698.41;5045589;28;20212;-68
2022/03/29 05:25:33;;;;;;;17.10;10.53;;;;;;;6.73;79.51;97700.66;5056194;28;20219;-68
2022/03/29 05:28:00;;;;;;;13.67;9.93;;;;;;;6.76;78.75;97701.31;5057672;28;20213;-70
2022/03/29 05:30:27;;;;;;;18.27;10.77;;;;;;;6.71;79.95;97699.94;5056913;28;20223;-69
2022/03/29 05:32:57;;;;;;;16.10;10.23;;;;;;;6.76;79.17;97703.94;5055836;28;20588;-68
2022/03/29 05:35:29;;;;;;;22.23;11.17;;;;;;;6.80;78.11;97700.22;5055550;28;20742;-68
2022/03/29 05:37:58;;;;;;;15.23;9.67;;;;;;;6.84;77.30;97701.69;5058118;28;20295;-68
2022/03/29 05:40:25;;;;;;;14.03;10.53;;;;;;;6.83;77.90;97699.19;5051434;28;20224;-67
2022/03/29 05:42:52;;;;;;;18.90;10.50;;;;;;;6.89;77.55;97704.88;5055549;28;20697;-68
2022/03/29 05:45:20;;;;;;;15.57;9.13;;;;;;;6.93;77.36;97695.88;5055437;28;20215;-68
2022/03/29 05:50:31;;;;;;;13.37;10.07;;;;;;;7.01;77.12;97692.78;5055364;28;20297;-69
2022/03/29 05:53:01;;;;;;;17.07;10.47;;;;;;;7.04;77.73;97692.59;5055617;28;20221;-69
2022/03/29 05:55:29;;;;;;;12.97;9.83;;;;;;;7.12;78.02;97695.56;5056932;28;20329;-68
2022/03/29 05:57:56;;;;;;;17.53;10.40;;;;;;;7.19;78.12;97692.47;5056763;28;20214;-68
2022/03/29 06:00:23;;;;;;;15.70;10.93;;;;;;;7.22;78.61;97691.44;5055738;28;20211;-68
2022/03/29 06:02:50;;;;;;;17.50;10.50;;;;;;;7.32;78.03;97690.75;5055402;28;20251;-70
2022/03/29 06:05:16;;;;;;;15.40;10.67;;;;;;;7.40;77.77;97689.34;5053818;28;20219;-69
2022/03/29 06:07:44;;;;;;;20.23;10.93;;;;;;;7.52;77.38;97695.59;5054210;28;20214;-71
2022/03/29 06:10:12;;;;;;;14.33;9.93;;;;;;;7.59;76.37;97687.22;5052844;28;20686;-70
2022/03/29 06:12:39;;;;;;;20.80;11.53;;;;;;;7.68;75.70;97696.31;5054871;28;20269;-69
2022/03/29 06:15:08;;;;;;;15.07;10.97;;;;;;;7.78;75.81;97697.41;5055725;28;20526;-69
2022/03/29 06:17:35;;;;;;;14.63;10.23;;;;;;;7.82;75.53;97696.25;5052745;28;20215;-70
2022/03/29 06:20:03;;;;;;;18.53;10.70;;;;;;;7.85;75.81;97706.59;5042493;28;20277;-69
2022/03/29 06:22:30;;;;;;;16.20;10.53;;;;;;;7.98;75.23;97700.44;5051600;28;20215;-70
2022/03/29 06:24:58;;;;;;;14.73;9.73;;;;;;;8.08;74.48;97695.41;5054976;28;20289;-70
2022/03/29 06:27:26;;;;;;;17.27;10.90;;;;;;;8.15;73.99;97691.41;5040232;28;20216;-70
2022/03/29 06:29:56;;;;;;;15.17;10.10;;;;;;;8.30;73.79;97711.47;5053665;28;20216;-70
2022/03/29 06:32:23;;;;;;;17.43;11.20;;;;;;;8.36;73.80;97700.53;5052378;28;20224;-70
2022/03/29 06:34:49;;;;;;;16.70;10.97;;;;;;;8.51;71.63;97694.25;5054888;28;20862;-71
2022/03/29 06:37:16;;;;;;;16.47;10.50;;;;;;;8.60;71.10;97705.00;5040482;28;20696;-69
2022/03/29 06:39:42;;;;;;;15.60;10.30;;;;;;;8.69;71.88;97706.16;5053678;28;20700;-70
2022/03/29 06:42:09;;;;;;;17.83;10.17;;;;;;;8.81;72.28;97705.34;5053926;28;20239;-70
2022/03/29 06:44:38;;;;;;;13.73;10.17;;;;;;;8.89;71.79;97708.28;5054717;28;20216;-70
2022/03/29 06:47:06;;;;;;;15.10;10.20;;;;;;;8.97;71.01;97709.44;5040427;28;20292;-70
2022/03/29 06:49:32;;;;;;;14.73;10.00;;;;;;;9.06;70.52;97702.69;5053655;28;20303;-70
2022/03/29 06:51:59;;;;;;;15.47;10.67;;;;;;;9.17;69.16;97710.69;5053891;28;20224;-70
2022/03/29 06:54:26;;;;;;;14.87;10.73;;;;;;;9.22;69.49;97708.53;5054317;28;20236;-71
2022/03/29 06:56:53;;;;;;;14.73;9.70;;;;;;;9.32;68.95;97712.22;5055911;28;20231;-69
2022/03/29 06:59:19;;;;;;;15.13;10.60;;;;;;;9.42;69.29;97715.91;5055848;28;20295;-70
2022/03/29 07:01:47;;;;;;;17.47;10.50;;;;;;;9.50;68.36;97708.28;5057180;28;20240;-71
2022/03/29 07:04:14;;;;;;;19.37;11.27;;;;;;;9.54;68.10;97709.75;5057631;28;20271;-70
2022/03/29 07:06:40;;;;;;;18.07;10.47;;;;;;;9.62;68.62;97707.41;5057915;28;20212;-70
2022/03/29 07:11:51;;;;;;;14.80;10.73;;;;;;;9.75;67.63;97711.69;5056967;28;20334;-71
2022/03/29 07:14:17;;;;;;;15.67;10.33;;;;;;;9.82;67.76;97701.50;5058312;28;20587;-69
2022/03/29 07:16:45;;;;;;;13.60;10.17;;;;;;;9.88;67.78;97703.72;5056763;28;20698;-69
2022/03/29 07:19:13;;;;;;;17.13;10.70;;;;;;;9.94;67.55;97703.25;5056905;28;20223;-69
2022/03/29 07:21:42;;;;;;;13.47;9.73;;;;;;;10.00;68.22;97697.53;5057100;28;20215;-69
2022/03/29 07:24:09;;;;;;;18.07;10.97;;;;;;;10.07;69.51;97701.44;5055862;28;20239;-68
2022/03/29 07:26:37;;;;;;;15.03;10.47;;;;;;;10.11;68.65;97694.97;5056895;28;20224;-69
2022/03/29 07:29:04;;;;;;;16.33;10.57;;;;;;;10.20;68.76;97705.69;5056773;28;20247;-70
2022/03/29 07:31:31;;;;;;;16.93;10.73;;;;;;;10.29;68.82;97701.53;5056884;28;20583;-69
2022/03/29 07:33:58;;;;;;;15.40;10.57;;;;;;;10.33;67.44;97701.19;5059323;28;20593;-68
2022/03/29 07:36:26;;;;;;;14.90;10.17;;;;;;;10.44;67.34;97705.66;5068843;28;20239;-69
2022/03/29 07:38:52;;;;;;;17.23;10.60;;;;;;;10.49;65.96;97700.88;5056665;28;20565;-69
2022/03/29 07:41:19;;;;;;;16.40;11.43;;;;;;;10.61;66.02;97705.22;5056661;28;20239;-69
2022/03/29 07:43:46;;;;;;;15.97;10.53;;;;;;;10.72;65.60;97707.91;5057918;28;20220;-67
2022/03/29 07:46:13;;;;;;;17.43;11.47;;;;;;;10.85;64.86;97698.06;5056296;28;20219;-68
2022/03/29 07:48:39;;;;;;;14.17;10.30;;;;;;;11.01;63.79;97690.63;5056445;28;20296;-68
2022/03/29 07:51:06;;;;;;;14.90;10.13;;;;;;;11.14;63.60;97699.31;5054922;28;20216;-68
2022/03/29 07:53:34;;;;;;;15.10;9.60;;;;;;;11.27;63.41;97689.44;5057483;28;20238;-67
2022/03/29 07:56:00;;;;;;;16.67;10.50;;;;;;;11.43;62.08;97690.75;5056402;28;20608;-68
2022/03/29 07:58:27;;;;;;;14.23;10.23;;;;;;;11.58;62.01;97688.69;5056388;28;20216;-69
2022/03/29 08:00:54;;;;;;;15.10;10.40;;;;;;;11.74;61.27;97691.81;5056246;28;20219;-69
2022/03/29 08:03:21;;;;;;;15.70;10.87;;;;;;;11.82;58.44;97681.44;5057228;28;20301;-70
2022/03/29 08:05:50;;;;;;;16.70;10.57;;;;;;;11.97;58.25;97675.72;5055877;28;20732;-70
2022/03/29 08:08:17;;;;;;;15.93;10.50;;;;;;;12.11;59.13;97677.25;5054823;28;20225;-70
2022/03/29 08:10:47;;;;;;;15.97;10.77;;;;;;;12.27;58.55;97673.22;5056103;28;20226;-70
2022/03/29 08:13:15;;;;;;;17.90;10.83;;;;;;;12.37;56.82;97668.84;5057589;28;20222;-69
2022/03/29 08:15:43;;;;;;;14.83;11.13;;;;;;;12.55;56.33;97669.94;5056008;28;20326;-69
2022/03/29 08:18:10;;;;;;;14.70;11.17;;;;;;;12.75;56.29;97666.44;5054145;28;20215;-69
2022/03/29 08:20:37;;;;;;;14.43;10.20;;;;;;;12.98;55.45;97673.31;5055897;28;20215;-69
2022/03/29 08:23:04;;;;;;;18.77;11.70;;;;;;;13.23;54.57;97677.31;5055491;28;20680;-69
2022/03/29 08:25:33;;;;;;;16.53;10.80;;;;;;;13.52;54.69;97672.97;5055983;28;20215;-69
2022/03/29 08:28:01;;;;;;;15.80;10.20;;;;;;;13.79;54.67;97675.81;5055696;28;20695;-69
2022/03/29 08:30:30;;;;;;;17.27;11.03;;;;;;;14.03;53.77;97670.97;5055884;28;20219;-69
2022/03/29 08:32:57;;;;;;;21.03;11.70;;;;;;;14.19;52.38;97680.09;5055604;28;20249;-71
2022/03/29 08:35:25;;;;;;;19.23;11.43;;;;;;;14.27;50.91;97679.41;5055289;28;20300;-69
2022/03/29 08:37:52;;;;;;;17.50;11.23;;;;;;;14.41;51.93;97681.63;5055465;28;20212;-69
2022/03/29 08:40:25;;;;;;;15.87;10.43;;;;;;;14.47;51.53;97676.59;5055457;28;20231;-69
2022/03/29 08:42:54;;;;;;;15.03;10.40;;;;;;;14.53;50.67;97680.50;5054208;28;20694;-69
2022/03/29 08:45:26;;;;;;;19.37;11.20;;;;;;;14.61;49.97;97678.81;5055434;28;20230;-69
2022/03/29 08:47:54;;;;;;;20.23;11.97;;;;;;;14.64;49.15;97683.03;5055606;28;20226;-70
2022/03/29 08:50:20;;;;;;;15.70;11.20;;;;;;;14.77;49.44;97689.75;5055286;28;20215;-69
2022/03/29 08:52:52;;;;;;;17.13;11.47;;;;;;;14.88;49.30;97675.44;5053962;28;20218;-70
2022/03/29 08:55:19;;;;;;;15.10;9.93;;;;;;;14.95;48.89;97674.72;5055166;28;20702;-70
2022/03/29 08:57:48;;;;;;;16.77;11.70;;;;;;;15.06;48.70;97676.34;5055170;28;20219;-70
2022/03/29 09:00:16;;;;;;;16.93;11.07;;;;;;;15.15;48.30;97679.00;5055413;28;20216;-69
2022/03/29 09:02:44;;;;;;;14.40;11.03;;;;;;;15.37;48.69;97673.34;5055288;28;20239;-69
2022/03/29 09:05:13;;;;;;;14.47;10.23;;;;;;;15.58;48.66;97675.78;5054994;28;20295;-70
2022/03/29 09:07:48;;;;;;;17.70;11.60;;;;;;;15.76;48.42;97668.69;5054673;28;20216;-70
2022/03/29 09:10:14;;;;;;;14.40;11.03;;;;;;;15.75;45.25;97673.16;5054751;28;20237;-69
2022/03/29 09:12:42;;;;;;;18.23;12.63;;;;;;;15.81;45.75;97671.69;5054628;28;20223;-70
2022/03/29 09:15:09;;;;;;;15.87;10.87;;;;;;;15.86;44.45;97669.44;5054604;28;20712;-70
2022/03/29 09:17:38;;;;;;;13.63;10.20;;;;;;;15.84;44.56;97660.75;5054947;28;20220;-70
2022/03/29 09:20:08;;;;;;;14.83;10.80;;;;;;;15.78;43.68;97672.88;5055416;28;20212;-70
2022/03/29 09:22:36;;;;;;;14.33;11.10;;;;;;;15.80;42.22;97662.88;5053095;28;20696;-69
2022/03/29 09:25:04;;;;;;;16.17;10.93;;;;;;;15.80;42.20;97659.38;5054500;28;20216;-69
2022/03/29 09:27:31;;;;;;;18.03;10.67;;;;;;;15.86;42.16;97656.97;5054394;28;20212;-69
2022/03/29 09:30:08;;;;;;;19.50;11.77;;;;;;;15.92;41.93;97652.84;5055894;28;20585;-69
2022/03/29 09:32:34;;;;;;;18.40;11.60;;;;;;;16.03;41.49;97651.66;5054867;28;20216;-69
2022/03/29 09:35:11;;;;;;;17.63;11.00;;;;;;;16.16;42.06;97644.09;5052684;28;20216;-69
2022/03/29 09:37:37;;;;;;;16.33;11.07;;;;;;;16.32;42.05;97641.59;5054892;28;20211;-69
2022/03/29 09:40:05;;;;;;;16.50;11.40;;;;;;;16.44;41.31;97642.22;5054983;28;20220;-71
2022/03/29 09:42:31;;;;;;;21.23;11.67;;;;;;;16.44;40.99;97640.41;5051219;28;20208;-70
2022/03/29 09:44:59;;;;;;;16.33;11.10;;;;;;;16.55;40.91;97636.66;5053461;28;20219;-72
2022/03/29 09:47:29;;;;;;;17.00;11.87;;;;;;;16.60;41.12;97637.88;5053495;28;20793;-71
2022/03/29 09:49:57;;;;;;;18.23;11.27;;;;;;;16.77;40.88;97639.66;5053289;28;20303;-71
2022/03/29 09:52:27;;;;;;;16.27;11.40;;;;;;;16.76;40.37;97640.66;5052517;28;20219;-71
2022/03/29 09:55:09;;;;;;;17.50;10.80;;;;;;;16.96;40.24;97636.78;5062118;28;20582;-70
2022/03/29 09:57:37;;;;;;;15.33;10.93;;;;;;;17.26;40.15;97624.78;5065001;28;20241;-70
2022/03/29 10:00:07;;;;;;;15.83;11.63;;;;;;;17.51;39.36;97610.56;5065913;28;20220;-70
2022/03/29 10:02:34;;;;;;;18.57;11.67;;;;;;;17.53;38.80;97612.06;5063774;28;20267;-71
2022/03/29 10:05:02;;;;;;;17.70;11.27;;;;;;;17.68;38.49;97613.13;5061797;28;20254;-71
2022/03/29 10:07:32;;;;;;;15.17;10.80;;;;;;;17.70;38.56;97611.13;5065982;28;20586;-72
2022/03/29 10:09:59;;;;;;;17.33;11.13;;;;;;;17.61;38.24;97609.41;5066471;28;20575;-71
2022/03/29 10:12:26;;;;;;;14.90;10.90;;;;;;;17.65;38.71;97610.78;5063484;28;20222;-70
2022/03/29 10:14:56;;;;;;;17.60;11.90;;;;;;;17.80;38.66;97601.13;5062047;28;20639;-71
2022/03/29 10:17:23;;;;;;;13.97;10.37;;;;;;;17.88;38.44;97593.13;5046287;28;20239;-71
2022/03/29 10:19:50;;;;;;;14.57;10.07;;;;;;;17.95;37.91;97588.81;5064745;28;20215;-71
2022/03/29 10:22:17;;;;;;;17.97;11.20;;;;;;;17.84;37.26;97581.09;5064021;28;20219;-71
2022/03/29 10:24:44;;;;;;;14.73;10.90;;;;;;;17.79;37.74;97582.59;5062686;28;20216;-71
2022/03/29 10:27:11;;;;;;;15.83;10.83;;;;;;;17.49;37.98;97589.34;5042851;28;20207;-71
2022/03/29 10:29:41;;;;;;;17.40;11.30;;;;;;;17.36;38.49;97585.41;5066233;28;20234;-72
2022/03/29 10:32:08;;;;;;;17.47;11.57;;;;;;;17.34;38.66;97582.06;5066070;28;20207;-71
2022/03/29 10:34:37;;;;;;;21.80;11.23;;;;;;;17.46;38.62;97573.66;5065079;28;20219;-70
2022/03/29 10:37:10;;;;;;;17.50;11.23;;;;;;;17.45;38.84;97571.97;5049861;28;20308;-70
2022/03/29 10:39:49;;;;;;;28.00;12.57;;;;;;;17.35;38.39;97568.56;5069786;28;20219;-70
2022/03/29 10:42:28;;;;;;;17.23;11.20;;;;;;;17.37;37.87;97563.91;5062640;28;20216;-70
2022/03/29 10:44:59;;;;;;;14.87;10.80;;;;;;;17.32;37.96;97555.50;5049113;28;20215;-69
2022/03/29 10:47:27;;;;;;;17.20;11.60;;;;;;;17.32;37.81;97558.19;5069581;28;20215;-70
2022/03/29 10:49:53;;;;;;;16.70;11.30;;;;;;;17.37;37.33;97555.91;5068066;28;20719;-71
2022/03/29 10:52:37;;;;;;;16.87;11.53;;;;;;;17.45;36.92;97542.59;5066869;28;20568;-72
2022/03/29 10:55:28;;;;;;;17.87;11.50;;;;;;;17.36;37.08;97543.50;5069618;28;20214;-71
2022/03/29 10:58:14;;;;;;;15.30;11.37;;;;;;;17.47;36.76;97535.25;5066718;28;20295;-71
2022/03/29 11:00:43;;;;;;;17.90;12.13;;;;;;;17.56;36.91;97531.56;5050305;28;20226;-71
2022/03/29 11:03:15;;;;;;;17.83;11.87;;;;;;;17.67;37.34;97525.91;5070076;28;20262;-72
2022/03/29 11:06:11;;;;;;;15.90;10.77;;;;;;;17.80;35.61;97517.44;5065067;28;20219;-72
2022/03/29 11:08:39;;;;;;;17.60;11.80;;;;;;;17.88;35.48;97502.25;5050115;28;20249;-71
2022/03/29 11:11:29;;;;;;;16.03;11.63;;;;;;;17.71;36.13;97497.88;5068654;28;20676;-71
2022/03/29 11:13:55;;;;;;;18.03;12.40;;;;;;;17.67;35.65;97485.84;5063635;28;20212;-71
2022/03/29 11:16:30;;;;;;;17.77;12.40;;;;;;;17.80;35.46;97472.81;5068561;28;20235;-70
2022/03/29 11:18:57;;;;;;;17.17;12.03;;;;;;;17.84;34.99;97466.13;5067415;28;20268;-72
2022/03/29 11:21:38;;;;;;;17.33;12.57;;;;;;;17.72;35.35;97475.50;5057585;28;20605;-71
2022/03/29 11:24:08;;;;;;;17.23;12.37;;;;;;;17.98;35.08;97464.66;5066275;28;20220;-70
2022/03/29 11:26:36;;;;;;;17.33;11.67;;;;;;;18.09;34.64;97466.94;5068772;28;20215;-71
2022/03/29 11:29:06;;;;;;;22.87;12.30;;;;;;;18.10;34.69;97464.13;5067673;28;20219;-71
2022/03/29 11:31:35;;;;;;;17.20;12.73;;;;;;;18.10;34.74;97474.00;5064673;28;20216;-71
2022/03/29 11:34:02;;;;;;;22.50;13.97;;;;;;;18.14;35.12;97481.50;5068267;28;20207;-71